createdAt,value
2022-11-23T00:00:46.253Z,0.60
2022-11-23T00:03:16.003Z,0.47
2022-11-23T00:05:43.567Z,0.58
2022-11-23T00:08:11.295Z,0.32
2022-11-23T00:10:38.752Z,0.64
2022-11-23T00:13:06.407Z,0.66
2022-11-23T00:15:33.833Z,0.63
2022-11-23T00:18:01.259Z,0.64
2022-11-23T00:20:28.867Z,0.60
2022-11-23T00:22:56.116Z,0.59
2022-11-23T00:25:23.561Z,0.56
2022-11-23T00:27:51.392Z,0.59
2022-11-23T00:30:18.880Z,0.56
2022-11-23T00:32:46.803Z,0.50
2022-11-23T00:35:14.533Z,0.48
2022-11-23T00:37:41.879Z,0.53
2022-11-23T00:40:10.049Z,0.51
2022-11-23T00:42:38.364Z,0.38
2022-11-23T00:45:06.268Z,0.53
2022-11-23T00:47:33.705Z,0.54
2022-11-23T00:50:01.682Z,-0.02
2022-11-23T00:52:30.528Z,0.42
2022-11-23T00:54:57.830Z,0.42
2022-11-23T00:57:25.471Z,0.36
2022-11-23T00:59:52.884Z,-0.38
2022-11-23T01:02:20.262Z,0.41
2022-11-23T01:04:47.872Z,-0.08
2022-11-23T01:07:15.198Z,0.34
2022-11-23T01:09:42.535Z,-0.09
2022-11-23T01:12:10.136Z,0.43
2022-11-23T01:14:37.601Z,0.42
2022-11-23T01:17:05.318Z,0.34
2022-11-23T01:19:35.660Z,0.46
2022-11-23T01:22:03.692Z,0.42
2022-11-23T01:24:31.101Z,0.46
2022-11-23T01:27:00.199Z,0.44
2022-11-23T01:29:29.226Z,0.36
2022-11-23T01:32:01.998Z,0.40
2022-11-23T01:34:29.432Z,0.35
2022-11-23T01:36:59.894Z,0.34
2022-11-23T01:39:29.063Z,0.34
2022-11-23T01:41:56.721Z,0.39
2022-11-23T01:44:28.941Z,0.25
2022-11-23T01:47:02.147Z,0.27
2022-11-23T01:49:35.539Z,0.27
2022-11-23T01:52:12.301Z,0.08
2022-11-23T01:54:46.288Z,0.22
2022-11-23T01:57:19.462Z,-0.05
2022-11-23T01:59:47.773Z,0.30
2022-11-23T02:02:16.301Z,0.28
2022-11-23T02:04:47.655Z,-0.58
2022-11-23T02:07:17.436Z,0.33
2022-11-23T02:09:46.858Z,0.42
2022-11-23T02:12:15.409Z,0.38
2022-11-23T02:14:45.070Z,-0.14
2022-11-23T02:17:12.927Z,-0.09
2022-11-23T02:19:59.724Z,0.41
2022-11-23T02:22:57.524Z,0.36
2022-11-23T02:25:33.921Z,0.35
2022-11-23T02:28:02.353Z,0.37
2022-11-23T02:30:32.173Z,0.37
2022-11-23T02:32:59.736Z,0.31
2022-11-23T02:35:27.203Z,0.38
2022-11-23T02:37:54.792Z,-0.01
2022-11-23T02:40:34.137Z,0.40
2022-11-23T02:43:01.745Z,0.42
2022-11-23T02:45:35.518Z,0.41
2022-11-23T02:48:03.116Z,0.39
2022-11-23T02:50:31.384Z,0.41
2022-11-23T02:53:00.945Z,0.41
2022-11-23T02:55:28.846Z,0.43
2022-11-23T02:57:56.335Z,0.48
2022-11-23T03:00:24.229Z,0.48
2022-11-23T03:02:51.673Z,0.37
2022-11-23T03:05:18.957Z,0.16
2022-11-23T03:07:50.981Z,0.23
2022-11-23T03:10:19.999Z,0.44
2022-11-23T03:12:49.721Z,0.49
2022-11-23T03:15:18.350Z,0.51
2022-11-23T03:17:45.542Z,0.54
2022-11-23T03:20:14.298Z,0.61
2022-11-23T03:22:45.746Z,0.62
2022-11-23T03:25:15.458Z,0.60
2022-11-23T03:27:47.828Z,0.56
2022-11-23T03:30:15.851Z,0.64
2022-11-23T03:32:44.099Z,0.43
2022-11-23T03:35:11.583Z,0.21
2022-11-23T03:37:57.772Z,0.47
2022-11-23T03:40:25.429Z,0.42
2022-11-23T03:43:11.185Z,0.36
2022-11-23T03:45:38.871Z,0.35
2022-11-23T03:48:06.760Z,-0.63
2022-11-23T03:50:34.167Z,0.37
2022-11-23T03:53:01.998Z,0.38
2022-11-23T03:55:30.340Z,0.39
2022-11-23T03:57:59.763Z,0.30
2022-11-23T04:00:30.897Z,-0.07
2022-11-23T04:02:59.005Z,-0.06
2022-11-23T04:05:46.446Z,0.47
2022-11-23T04:08:32.565Z,0.46
2022-11-23T04:11:01.042Z,0.65
2022-11-23T04:13:37.148Z,0.17
2022-11-23T04:16:04.719Z,0.67
2022-11-23T04:18:31.989Z,0.72
2022-11-23T04:20:59.388Z,0.62
2022-11-23T04:23:27.083Z,-0.27
2022-11-23T04:25:54.795Z,0.57
2022-11-23T04:28:23.361Z,0.51
2022-11-23T04:30:50.983Z,0.14
2022-11-23T04:33:19.260Z,0.51
2022-11-23T04:35:46.877Z,0.49
2022-11-23T04:38:15.208Z,0.51
2022-11-23T04:40:47.354Z,0.44
2022-11-23T04:43:15.508Z,0.00
2022-11-23T04:45:45.052Z,0.01
2022-11-23T04:48:23.556Z,0.53
2022-11-23T04:50:55.420Z,0.51
2022-11-23T04:53:30.906Z,-0.02
2022-11-23T04:55:58.663Z,0.46
2022-11-23T04:58:27.902Z,-0.31
2022-11-23T05:00:59.735Z,0.43
2022-11-23T05:03:28.619Z,0.43
2022-11-23T05:05:59.285Z,0.47
2022-11-23T05:08:30.252Z,0.16
2022-11-23T05:11:16.100Z,0.56
2022-11-23T05:13:43.917Z,0.41
2022-11-23T05:16:11.580Z,0.45
2022-11-23T05:18:40.484Z,0.44
2022-11-23T05:21:08.899Z,0.44
2022-11-23T05:23:36.912Z,0.50
2022-11-23T05:26:04.321Z,0.39
2022-11-23T05:28:41.468Z,0.54
2022-11-23T05:31:13.051Z,0.55
2022-11-23T05:33:40.768Z,0.50
2022-11-23T05:36:10.166Z,0.64
2022-11-23T05:38:41.338Z,0.61
2022-11-23T05:41:18.546Z,0.59
2022-11-23T05:43:47.121Z,-0.26
2022-11-23T05:46:20.181Z,0.19
2022-11-23T05:48:47.848Z,0.62
2022-11-23T05:51:15.710Z,0.11
2022-11-23T05:53:45.584Z,0.61
2022-11-23T05:56:26.133Z,0.54
2022-11-23T05:59:12.305Z,0.61
2022-11-23T06:01:42.380Z,0.55
2022-11-23T06:04:13.564Z,0.67
2022-11-23T06:06:45.310Z,0.77
2022-11-23T06:09:12.838Z,0.79
2022-11-23T06:11:44.818Z,0.77
2022-11-23T06:14:16.352Z,0.67
2022-11-23T06:16:46.459Z,0.60
2022-11-23T06:19:30.865Z,0.44
2022-11-23T06:21:59.465Z,0.64
2022-11-23T06:24:31.633Z,0.65
2022-11-23T06:27:18.249Z,0.60
2022-11-23T06:29:48.475Z,0.74
2022-11-23T06:32:15.905Z,0.70
2022-11-23T06:34:43.543Z,0.69
2022-11-23T06:37:11.242Z,0.74
2022-11-23T06:39:40.293Z,-0.13
2022-11-23T06:42:31.288Z,0.85
2022-11-23T06:44:55.940Z,0.93
2022-11-23T06:47:26.440Z,0.49
2022-11-23T06:49:55.834Z,0.53
2022-11-23T06:52:28.014Z,0.85
2022-11-23T06:54:56.167Z,0.79
2022-11-23T06:57:25.233Z,0.81
2022-11-23T06:59:54.318Z,0.82
2022-11-23T07:02:27.780Z,0.78
2022-11-23T07:04:58.621Z,0.74
2022-11-23T07:07:28.004Z,0.46
2022-11-23T07:10:07.423Z,0.70
2022-11-23T07:12:47.103Z,0.83
2022-11-23T07:15:17.559Z,0.83
2022-11-23T07:17:46.000Z,0.30
2022-11-23T07:20:13.576Z,0.84
2022-11-23T07:22:41.462Z,0.94
2022-11-23T07:25:09.570Z,0.98
2022-11-23T07:27:37.657Z,0.91
2022-11-23T07:30:05.848Z,0.41
2022-11-23T07:32:34.410Z,0.91
2022-11-23T07:35:02.057Z,0.87
2022-11-23T07:37:31.191Z,0.17
2022-11-23T07:40:01.541Z,0.69
2022-11-23T07:42:35.509Z,0.78
2022-11-23T07:45:08.677Z,0.97
2022-11-23T07:47:38.781Z,0.97
2022-11-23T07:50:08.329Z,0.86
2022-11-23T07:52:37.788Z,0.64
2022-11-23T07:55:06.055Z,1.14
2022-11-23T07:57:33.545Z,1.16
2022-11-23T08:00:01.544Z,1.12
2022-11-23T08:02:52.750Z,1.07
2022-11-23T08:05:26.918Z,1.02
2022-11-23T08:08:01.525Z,0.71
2022-11-23T08:10:30.295Z,1.17
2022-11-23T08:13:03.233Z,1.20
2022-11-23T08:15:31.037Z,1.18
2022-11-23T08:18:02.817Z,1.20
2022-11-23T08:20:31.959Z,0.71
2022-11-23T08:22:59.368Z,1.06
2022-11-23T08:25:28.761Z,1.15
2022-11-23T08:28:01.339Z,1.18
2022-11-23T08:30:31.142Z,0.48
2022-11-23T08:32:59.832Z,0.97
2022-11-23T08:35:27.090Z,1.24
2022-11-23T08:37:54.744Z,1.16
2022-11-23T08:40:25.297Z,1.22
2022-11-23T08:42:53.181Z,1.17
2022-11-23T08:45:21.253Z,1.13
2022-11-23T08:47:48.708Z,1.07
2022-11-23T08:50:16.174Z,0.26
2022-11-23T08:52:44.046Z,0.93
2022-11-23T08:55:12.001Z,0.98
2022-11-23T08:57:39.938Z,1.05
2022-11-23T09:00:09.290Z,1.06
2022-11-23T09:02:36.503Z,1.11
2022-11-23T09:05:05.316Z,1.13
2022-11-23T09:07:32.951Z,1.05
2022-11-23T09:10:00.403Z,1.11
2022-11-23T09:12:27.782Z,1.18
2022-11-23T09:14:55.844Z,1.08
2022-11-23T09:17:23.256Z,1.02
2022-11-23T09:19:50.806Z,1.07
2022-11-23T09:22:18.570Z,1.14
2022-11-23T09:24:45.907Z,1.18
2022-11-23T09:27:13.398Z,1.14
2022-11-23T09:29:41.068Z,1.15
2022-11-23T09:32:08.394Z,0.68
2022-11-23T09:34:36.117Z,0.96
2022-11-23T09:37:03.885Z,1.09
2022-11-23T09:39:31.128Z,0.79
2022-11-23T09:42:17.399Z,1.28
2022-11-23T09:45:09.029Z,1.26
2022-11-23T09:47:54.436Z,1.14
2022-11-23T09:50:39.130Z,0.79
2022-11-23T09:53:14.115Z,1.21
2022-11-23T09:55:45.332Z,1.21
2022-11-23T09:58:22.143Z,1.25
2022-11-23T10:01:14.526Z,1.17
2022-11-23T10:03:48.742Z,1.16
2022-11-23T10:06:26.169Z,1.17
2022-11-23T10:09:05.301Z,1.19
2022-11-23T10:11:51.395Z,1.10
2022-11-23T10:14:52.225Z,1.02
2022-11-23T10:17:51.219Z,1.04
2022-11-23T10:20:50.010Z,1.00
2022-11-23T10:23:23.312Z,1.04
2022-11-23T10:25:52.815Z,0.95
2022-11-23T10:28:22.245Z,1.15
2022-11-23T10:30:56.825Z,1.15
2022-11-23T10:33:54.533Z,1.08
2022-11-23T10:36:21.790Z,1.01
2022-11-23T10:38:55.669Z,0.59
2022-11-23T10:41:23.314Z,0.67
2022-11-23T10:44:09.384Z,1.24
2022-11-23T10:46:37.671Z,1.23
2022-11-23T10:49:20.494Z,1.16
2022-11-23T10:52:00.162Z,1.09
2022-11-23T10:54:39.466Z,1.05
2022-11-23T10:57:28.788Z,1.00
2022-11-23T10:59:59.642Z,0.93
2022-11-23T11:02:27.127Z,0.47
2022-11-23T11:05:14.257Z,0.38
2022-11-23T11:07:41.942Z,0.89
2022-11-23T11:10:40.287Z,0.82
2022-11-23T11:13:30.252Z,0.85
2022-11-23T11:16:19.003Z,0.85
2022-11-23T11:18:46.504Z,0.98
2022-11-23T11:21:28.714Z,0.97
2022-11-23T11:24:04.524Z,1.04
2022-11-23T11:26:35.408Z,1.04
2022-11-23T11:29:10.150Z,1.08
2022-11-23T11:31:40.683Z,1.08
2022-11-23T11:34:24.158Z,0.79
2022-11-23T11:37:19.797Z,1.03
2022-11-23T11:39:47.133Z,1.05
2022-11-23T11:42:21.273Z,1.06
2022-11-23T11:44:53.154Z,1.09
2022-11-23T11:47:36.884Z,1.07
2022-11-23T11:50:31.438Z,1.08
2022-11-23T11:53:12.786Z,1.12
2022-11-23T11:55:56.106Z,1.09
2022-11-23T11:58:29.055Z,1.05
2022-11-23T12:01:12.042Z,0.84
2022-11-23T12:03:57.336Z,0.93
2022-11-23T12:06:33.412Z,0.53
2022-11-23T12:09:07.536Z,0.99
2022-11-23T12:11:34.929Z,1.03
2022-11-23T12:14:05.214Z,1.01
2022-11-23T12:19:50.433Z,0.46
2022-11-23T12:22:46.939Z,0.96
2022-11-23T12:25:24.243Z,0.99
2022-11-23T12:28:20.484Z,1.05
2022-11-23T12:31:10.416Z,0.88
2022-11-23T12:33:53.640Z,0.88
2022-11-23T12:36:37.480Z,0.87
2022-11-23T12:39:24.605Z,0.91
2022-11-23T12:42:04.751Z,0.91
2022-11-23T12:45:26.515Z,1.00
2022-11-23T12:48:06.343Z,1.04
2022-11-23T12:50:47.844Z,0.97
2022-11-23T12:53:30.696Z,1.03
2022-11-23T12:56:28.970Z,0.99
2022-11-23T12:58:58.498Z,0.98
2022-11-23T13:01:47.614Z,1.04
2022-11-23T13:04:35.748Z,1.02
2022-11-23T13:07:32.733Z,0.99
2022-11-23T13:10:22.790Z,0.88
2022-11-23T13:13:35.511Z,0.80
2022-11-23T13:16:11.526Z,0.88
2022-11-23T13:19:05.174Z,0.85
2022-11-23T13:21:44.738Z,0.79
2022-11-23T13:24:33.144Z,0.80
2022-11-23T13:27:16.175Z,0.78
2022-11-23T13:29:49.819Z,0.75
2022-11-23T13:32:39.263Z,0.69
2022-11-23T13:35:21.901Z,0.62
2022-11-23T13:38:19.157Z,0.62
2022-11-23T13:40:47.032Z,0.17
2022-11-23T13:43:30.277Z,0.22
2022-11-23T13:46:12.857Z,0.62
2022-11-23T13:49:00.893Z,0.60
2022-11-23T13:51:30.862Z,0.61
2022-11-23T13:54:04.330Z,0.69
2022-11-23T13:56:41.508Z,0.68
2022-11-23T13:59:24.119Z,0.71
2022-11-23T14:02:07.108Z,0.61
2022-11-23T14:04:41.041Z,0.62
2022-11-23T14:07:17.835Z,0.25
2022-11-23T14:10:15.480Z,0.52
2022-11-23T14:12:46.463Z,0.34
2022-11-23T14:15:27.182Z,0.35
2022-11-23T14:18:31.778Z,0.30
2022-11-23T14:21:22.380Z,0.36
2022-11-23T14:24:21.891Z,0.33
2022-11-23T14:27:17.755Z,0.29
2022-11-23T14:30:01.778Z,0.35
2022-11-23T14:32:39.978Z,0.37
2022-11-23T14:35:07.480Z,0.26
2022-11-23T14:37:47.699Z,0.35
2022-11-23T14:40:43.094Z,0.39
2022-11-23T14:43:17.537Z,0.51
2022-11-23T14:45:48.651Z,0.64
2022-11-23T14:48:30.849Z,0.64
2022-11-23T14:51:03.820Z,0.69
2022-11-23T14:53:45.414Z,0.62
2022-11-23T14:56:47.812Z,0.56
2022-11-23T14:59:17.877Z,0.63
2022-11-23T15:01:55.027Z,0.54
2022-11-23T15:04:34.726Z,0.38
2022-11-23T15:07:28.767Z,0.37
2022-11-23T15:10:27.109Z,0.31
2022-11-23T15:12:54.539Z,0.38
2022-11-23T15:15:27.884Z,0.35
2022-11-23T15:18:01.575Z,0.28
2022-11-23T15:20:49.035Z,0.32
2022-11-23T15:23:23.023Z,0.30
2022-11-23T15:26:00.686Z,0.25
2022-11-23T15:28:30.081Z,0.28
2022-11-23T15:30:58.852Z,0.35
2022-11-23T15:33:27.429Z,0.35
2022-11-23T15:35:55.505Z,0.36
2022-11-23T15:38:24.098Z,0.32
2022-11-23T15:40:51.976Z,0.28
2022-11-23T15:43:20.304Z,0.32
2022-11-23T15:45:47.629Z,0.27
2022-11-23T15:48:14.853Z,0.30
2022-11-23T15:50:49.704Z,0.33
2022-11-23T15:53:17.423Z,-0.42
2022-11-23T15:55:45.334Z,0.43
2022-11-23T15:58:17.670Z,-0.09
2022-11-23T16:00:56.381Z,0.39
2022-11-23T16:03:23.887Z,0.38
2022-11-23T16:06:32.341Z,0.28
2022-11-23T16:08:59.952Z,0.07
2022-11-23T16:11:34.738Z,0.28
2022-11-23T16:14:32.153Z,0.27
2022-11-23T16:17:06.065Z,0.33
2022-11-23T16:19:34.868Z,-0.53
2022-11-23T16:22:06.263Z,0.35
2022-11-23T16:24:36.397Z,0.41
2022-11-23T16:27:13.659Z,0.40
2022-11-23T16:29:41.627Z,0.39
2022-11-23T16:32:25.931Z,-0.22
2022-11-23T16:34:53.984Z,0.36
2022-11-23T16:37:22.186Z,0.37
2022-11-23T16:39:49.717Z,0.31
2022-11-23T16:42:18.314Z,0.25
2022-11-23T16:44:45.747Z,-0.16
2022-11-23T16:47:34.522Z,0.21
2022-11-23T16:50:02.023Z,0.34
2022-11-23T16:52:30.666Z,0.33
2022-11-23T16:54:58.448Z,-0.62
2022-11-23T16:57:34.187Z,-0.81
2022-11-23T17:00:07.999Z,0.03
2022-11-23T17:02:36.424Z,0.11
2022-11-23T17:05:07.164Z,0.09
2022-11-23T17:07:34.733Z,0.08
2022-11-23T17:10:02.511Z,0.14
2022-11-23T17:12:30.578Z,0.13
2022-11-23T17:14:59.920Z,0.06
2022-11-23T17:17:28.855Z,0.07
2022-11-23T17:20:02.504Z,0.14
2022-11-23T17:22:31.626Z,0.17
2022-11-23T17:24:59.159Z,0.12
2022-11-23T17:27:26.597Z,0.10
2022-11-23T17:30:00.744Z,0.06
2022-11-23T17:32:28.923Z,0.02
2022-11-23T17:34:56.302Z,0.01
2022-11-23T17:37:24.781Z,-0.06
2022-11-23T17:39:52.315Z,-0.48
2022-11-23T17:42:19.505Z,-0.04
2022-11-23T17:44:47.060Z,-0.13
2022-11-23T17:47:25.911Z,-0.71
2022-11-23T17:49:53.436Z,-0.16
2022-11-23T17:52:21.370Z,-0.30
2022-11-23T17:54:48.703Z,-0.05
2022-11-23T17:57:20.421Z,-0.03
2022-11-23T17:59:47.952Z,-0.07
2022-11-23T18:02:15.815Z,-0.14
2022-11-23T18:04:43.203Z,-0.10
2022-11-23T18:07:14.250Z,-0.50
2022-11-23T18:09:42.425Z,-0.18
2022-11-23T18:12:10.389Z,-0.25
2022-11-23T18:14:38.054Z,-0.39
2022-11-23T18:17:06.221Z,-0.43
2022-11-23T18:19:33.966Z,-0.50
2022-11-23T18:22:01.580Z,-0.49
2022-11-23T18:24:29.022Z,-0.84
2022-11-23T18:26:56.509Z,-0.44
2022-11-23T18:29:23.964Z,-0.37
2022-11-23T18:31:51.908Z,-0.40
2022-11-23T18:34:19.747Z,-0.38
2022-11-23T18:36:47.002Z,-0.51
2022-11-23T18:39:14.179Z,-0.55
2022-11-23T18:41:41.980Z,-0.85
2022-11-23T18:44:09.319Z,-0.48
2022-11-23T18:46:36.502Z,-0.53
2022-11-23T18:49:04.155Z,-0.57
2022-11-23T18:51:31.627Z,-0.72
2022-11-23T18:53:58.972Z,-1.22
2022-11-23T18:56:26.395Z,-0.89
2022-11-23T18:58:54.387Z,-0.83
2022-11-23T19:01:23.368Z,-0.89
2022-11-23T19:03:53.131Z,-0.96
2022-11-23T19:06:23.274Z,-1.03
2022-11-23T19:08:57.735Z,-1.10
2022-11-23T19:11:27.811Z,-0.97
2022-11-23T19:13:58.480Z,-0.92
2022-11-23T19:16:31.569Z,-0.90
2022-11-23T19:19:07.454Z,-1.58
2022-11-23T19:21:36.188Z,-0.82
2022-11-23T19:24:04.529Z,-0.78
2022-11-23T19:26:32.364Z,-0.81
2022-11-23T19:28:59.861Z,-0.83
2022-11-23T19:31:30.431Z,-0.79
2022-11-23T19:34:01.114Z,-0.84
2022-11-23T19:36:31.181Z,-0.84
2022-11-23T19:39:00.706Z,-0.80
2022-11-23T19:41:30.801Z,-0.85
2022-11-23T19:43:59.895Z,-1.03
2022-11-23T19:46:28.408Z,-1.07
2022-11-23T19:48:58.631Z,-1.13
2022-11-23T19:51:27.045Z,-1.57
2022-11-23T19:53:57.297Z,-1.12
2022-11-23T19:56:27.909Z,-1.78
2022-11-23T19:59:01.468Z,-1.29
2022-11-23T20:01:34.490Z,-1.26
2022-11-23T20:04:08.845Z,-1.21
2022-11-23T20:06:39.048Z,-1.21
2022-11-23T20:09:11.886Z,-1.18
2022-11-23T20:11:41.032Z,-1.06
2022-11-23T20:14:11.239Z,-0.97
2022-11-23T20:16:39.334Z,-1.05
2022-11-23T20:19:09.126Z,-1.13
2022-11-23T20:21:37.631Z,-1.40
2022-11-23T20:24:07.824Z,-1.17
2022-11-23T20:26:36.813Z,-2.13
2022-11-23T20:29:05.655Z,-1.83
2022-11-23T20:31:33.719Z,-1.45
2022-11-23T20:34:04.161Z,-1.53
2022-11-23T20:36:35.936Z,-1.72
2022-11-23T20:39:06.252Z,-1.73
2022-11-23T20:41:35.744Z,-1.66
2022-11-23T20:44:10.950Z,-1.61
2022-11-23T20:47:00.747Z,-1.70
2022-11-23T20:49:26.004Z,-1.66
2022-11-23T20:51:53.259Z,-1.58
2022-11-23T20:54:20.661Z,-1.52
2022-11-23T20:56:48.433Z,-1.53
2022-11-23T20:59:16.465Z,-1.56
2022-11-23T21:01:43.828Z,-1.49
2022-11-23T21:04:11.337Z,-1.93
2022-11-23T21:06:40.192Z,-1.49
2022-11-23T21:09:09.729Z,-1.97
2022-11-23T21:11:56.224Z,-1.73
2022-11-23T21:14:28.063Z,-1.74
2022-11-23T21:17:01.247Z,-1.74
2022-11-23T21:19:33.095Z,-1.86
2022-11-23T21:22:08.193Z,-1.65
2022-11-23T21:24:36.682Z,-1.49
2022-11-23T21:27:06.196Z,-1.50
2022-11-23T21:29:34.312Z,-1.50
2022-11-23T21:32:01.715Z,-1.49
2022-11-23T21:34:30.797Z,-1.49
2022-11-23T21:36:59.146Z,-2.44
2022-11-23T21:39:26.897Z,-1.46
2022-11-23T21:41:54.430Z,-1.93
2022-11-23T21:44:25.236Z,-1.64
2022-11-23T21:46:52.925Z,-1.64
2022-11-23T21:49:20.236Z,-1.60
2022-11-23T21:51:48.501Z,-1.80
2022-11-23T21:54:16.439Z,-1.64
2022-11-23T21:56:47.262Z,-2.12
2022-11-23T21:59:15.046Z,-1.60
2022-11-23T22:01:43.259Z,-1.59
2022-11-23T22:04:15.898Z,-1.72
2022-11-23T22:06:45.376Z,-1.79
2022-11-23T22:09:13.544Z,-1.80
2022-11-23T22:11:43.281Z,-1.82
2022-11-23T22:14:16.296Z,-1.88
2022-11-23T22:16:46.407Z,-1.83
2022-11-23T22:19:15.291Z,-1.77
2022-11-23T22:21:44.159Z,-1.91
2022-11-23T22:24:14.115Z,-1.85
2022-11-23T22:26:42.514Z,-1.99
2022-11-23T22:29:10.854Z,-2.45
2022-11-23T22:31:38.837Z,-2.03
2022-11-23T22:34:09.367Z,-2.09
2022-11-23T22:36:36.942Z,-2.10
2022-11-23T22:39:06.359Z,-2.14
2022-11-23T22:41:36.792Z,-2.15
2022-11-23T22:44:10.029Z,-2.10
2022-11-23T22:46:38.399Z,-1.95
2022-11-23T22:49:05.980Z,-2.38
2022-11-23T22:51:33.355Z,-1.93
2022-11-23T22:54:01.398Z,-1.96
2022-11-23T22:56:30.604Z,-1.84
2022-11-23T22:58:58.288Z,-1.83
2022-11-23T23:01:28.925Z,-1.85
2022-11-23T23:03:58.176Z,-1.99
2022-11-23T23:06:30.212Z,-2.00
2022-11-23T23:08:59.996Z,-1.96
2022-11-23T23:11:30.614Z,-1.91
2022-11-23T23:13:58.315Z,-2.40
2022-11-23T23:16:27.022Z,-1.95
2022-11-23T23:18:57.090Z,-2.89
2022-11-23T23:21:25.632Z,-2.08
2022-11-23T23:23:55.638Z,-2.02
2022-11-23T23:26:25.188Z,-2.14
2022-11-23T23:28:57.582Z,-2.23
2022-11-23T23:31:25.905Z,-2.09
2022-11-23T23:33:57.149Z,-2.15
2022-11-23T23:36:24.806Z,-2.14
2022-11-23T23:38:53.053Z,-2.27
2022-11-23T23:41:20.781Z,-2.02
2022-11-23T23:43:48.427Z,-1.98
2022-11-23T23:46:16.935Z,-2.06
2022-11-23T23:48:44.809Z,-2.23
2022-11-23T23:51:17.944Z,-2.21
2022-11-23T23:53:46.139Z,-2.22
2022-11-23T23:56:24.884Z,-2.24
2022-11-23T23:58:54.545Z,-2.29
